BAW446 EGLL-LEMG
Flight info
| Callsign | BAW446 |
|---|---|
| Flight time | N/A |
| Altitude | 35000 |
| Route | GASGU N866 SAM M195 MARUK N621 LELNA DCT NOVAN/N0442F370 DCT DELOG DCT CRISA DCT VULPE |
| Aircraft | A320/M-SDE3FGHIRWY/LB1 |
Departure
| Time | N/A |
|---|---|
| Airport | London Heathrow Airport (EGLL) |
Arrival
| Time | 2026-05-06 17:58 |
|---|---|
| Airport | Málaga-Costa del Sol Airport (LEMG) |
| Time | Latitude | Longitude | Altitude | Speed | Heading |
|---|---|---|---|---|---|
| 2026-05-06 17:44 | 37.25785 | -4.58331 | 18321 ft | 325 kts | 173° |
| 2026-05-06 17:44 | 37.23763 | -4.58132 | 17658 ft | 319 kts | 182° |
| 2026-05-06 17:44 | 37.21560 | -4.58136 | 16929 ft | 316 kts | 182° |
| 2026-05-06 17:44 | 37.19370 | -4.58131 | 16236 ft | 313 kts | 181° |
| 2026-05-06 17:45 | 37.17202 | -4.58117 | 15548 ft | 310 kts | 181° |
| 2026-05-06 17:45 | 37.15059 | -4.58094 | 14879 ft | 307 kts | 181° |
| 2026-05-06 17:45 | 37.12939 | -4.58070 | 14345 ft | 300 kts | 181° |
| 2026-05-06 17:45 | 37.10920 | -4.58048 | 14125 ft | 283 kts | 181° |
| 2026-05-06 17:46 | 37.08979 | -4.58031 | 13752 ft | 275 kts | 181° |
| 2026-05-06 17:46 | 37.07106 | -4.58015 | 13505 ft | 273 kts | 181° |
| 2026-05-06 17:46 | 37.05208 | -4.58003 | 13240 ft | 273 kts | 181° |
| 2026-05-06 17:46 | 37.03309 | -4.57992 | 12976 ft | 272 kts | 181° |
| 2026-05-06 17:47 | 37.01419 | -4.57979 | 12715 ft | 271 kts | 181° |
| 2026-05-06 17:47 | 36.99533 | -4.57962 | 12480 ft | 271 kts | 181° |
| 2026-05-06 17:47 | 36.97651 | -4.57945 | 12169 ft | 270 kts | 181° |
| 2026-05-06 17:47 | 36.95816 | -4.58061 | 11766 ft | 259 kts | 196° |
| 2026-05-06 17:48 | 36.94294 | -4.59116 | 11478 ft | 250 kts | 226° |
| 2026-05-06 17:48 | 36.93413 | -4.60980 | 11142 ft | 256 kts | 256° |
| 2026-05-06 17:48 | 36.93275 | -4.63341 | 10773 ft | 293 kts | 268° |
| 2026-05-06 17:48 | 36.93308 | -4.65891 | 10425 ft | 294 kts | 276° |
| 2026-05-06 17:49 | 36.94063 | -4.68196 | 10021 ft | 289 kts | 309° |
| 2026-05-06 17:49 | 36.95074 | -4.69263 | 9832 ft | 289 kts | 332° |
| 2026-05-06 17:49 | 36.97035 | -4.69883 | 9764 ft | 296 kts | 354° |
| 2026-05-06 17:49 | 36.99094 | -4.70037 | 9630 ft | 298 kts | 352° |
| 2026-05-06 17:50 | 37.01034 | -4.70811 | 9487 ft | 292 kts | 328° |
| 2026-05-06 17:50 | 37.02549 | -4.72459 | 9358 ft | 288 kts | 305° |
| 2026-05-06 17:50 | 37.03373 | -4.74708 | 8929 ft | 287 kts | 275° |
| 2026-05-06 17:50 | 37.03093 | -4.77132 | 8515 ft | 283 kts | 242° |
| 2026-05-06 17:51 | 37.01809 | -4.78924 | 8148 ft | 279 kts | 209° |
| 2026-05-06 17:51 | 36.99964 | -4.79504 | 7815 ft | 276 kts | 176° |
| 2026-05-06 17:51 | 36.98201 | -4.78743 | 7512 ft | 267 kts | 148° |
| 2026-05-06 17:51 | 36.96625 | -4.77514 | 7149 ft | 266 kts | 153° |
| 2026-05-06 17:52 | 36.94960 | -4.76514 | 6765 ft | 265 kts | 155° |
| 2026-05-06 17:52 | 36.93249 | -4.75693 | 6392 ft | 263 kts | 163° |
| 2026-05-06 17:52 | 36.91486 | -4.75092 | 6008 ft | 262 kts | 166° |
| 2026-05-06 17:52 | 36.89716 | -4.74573 | 5632 ft | 262 kts | 167° |
| 2026-05-06 17:53 | 36.87929 | -4.74064 | 5255 ft | 264 kts | 166° |
| 2026-05-06 17:53 | 36.86129 | -4.73542 | 4874 ft | 266 kts | 166° |
| 2026-05-06 17:53 | 36.84323 | -4.72999 | 4492 ft | 268 kts | 166° |
| 2026-05-06 17:53 | 36.82547 | -4.72453 | 4108 ft | 258 kts | 166° |
| 2026-05-06 17:54 | 36.80836 | -4.71918 | 3775 ft | 248 kts | 165° |
| 2026-05-06 17:54 | 36.79176 | -4.71375 | 3699 ft | 246 kts | 161° |
| 2026-05-06 17:54 | 36.77632 | -4.70466 | 3541 ft | 252 kts | 140° |
| 2026-05-06 17:54 | 36.76603 | -4.68746 | 3194 ft | 245 kts | 120° |
| 2026-05-06 17:55 | 36.75841 | -4.66895 | 2878 ft | 232 kts | 119° |
| 2026-05-06 17:55 | 36.75140 | -4.65184 | 2579 ft | 213 kts | 119° |
| 2026-05-06 17:55 | 36.74494 | -4.63636 | 2322 ft | 211 kts | 118° |
| 2026-05-06 17:55 | 36.73841 | -4.62077 | 2082 ft | 197 kts | 119° |
| 2026-05-06 17:56 | 36.73232 | -4.60621 | 1800 ft | 178 kts | 119° |
| 2026-05-06 17:56 | 36.72691 | -4.59329 | 1612 ft | 156 kts | 120° |
| 2026-05-06 17:56 | 36.72213 | -4.58187 | 1379 ft | 142 kts | 120° |
| 2026-05-06 17:56 | 36.71771 | -4.57135 | 1185 ft | 137 kts | 118° |
| 2026-05-06 17:57 | 36.71330 | -4.56066 | 985 ft | 139 kts | 118° |
| 2026-05-06 17:57 | 36.70881 | -4.54992 | 823 ft | 138 kts | 118° |
| 2026-05-06 17:57 | 36.70442 | -4.53948 | 644 ft | 137 kts | 117° |
| 2026-05-06 17:57 | 36.70002 | -4.52897 | 466 ft | 136 kts | 116° |
| 2026-05-06 17:58 | 36.69561 | -4.51840 | 314 ft | 138 kts | 118° |
| 2026-05-06 17:58 | 36.69119 | -4.50809 | 93 ft | 133 kts | 116° |
| 2026-05-06 17:58 | 36.68705 | -4.49843 | 40 ft | 111 kts | 108° |
| 2026-05-06 17:58 | 36.68763 | -4.49985 | 35 ft | 2 kts | 114° |
| 2026-05-06 17:59 | 36.68683 | -4.49782 | 36 ft | 38 kts | 117° |
| 2026-05-06 17:59 | 36.68571 | -4.49522 | 37 ft | 25 kts | 124° |
| 2026-05-06 17:59 | 36.68444 | -4.49360 | 37 ft | 29 kts | 146° |
| 2026-05-06 17:59 | 36.68318 | -4.49256 | 36 ft | 21 kts | 146° |
| 2026-05-06 18:00 | 36.68221 | -4.49124 | 36 ft | 19 kts | 110° |
| 2026-05-06 18:00 | 36.68156 | -4.48964 | 35 ft | 23 kts | 116° |
| 2026-05-06 18:00 | 36.68069 | -4.48860 | 36 ft | 16 kts | 187° |
| 2026-05-06 18:00 | 36.67995 | -4.48942 | 34 ft | 13 kts | 271° |
| 2026-05-06 18:01 | 36.67949 | -4.49017 | 36 ft | 13 kts | 208° |
| 2026-05-06 18:01 | 36.67925 | -4.49032 | 35 ft | 4 kts | 206° |
| 2026-05-06 18:01 | 36.67924 | -4.49032 | 35 ft | 0 kts | 206° |